createdAt,value
2022-10-23T00:01:47.335Z,101239.80
2022-10-23T00:04:21.699Z,101236.34
2022-10-23T00:06:50.050Z,101228.98
2022-10-23T00:09:21.535Z,101222.56
2022-10-23T00:11:50.895Z,101217.55
2022-10-23T00:14:21.687Z,101213.48
2022-10-23T00:16:50.833Z,101208.40
2022-10-23T00:19:18.905Z,101203.40
2022-10-23T00:21:46.985Z,101201.98
2022-10-23T00:24:15.278Z,101198.84
2022-10-23T00:26:43.443Z,101201.49
2022-10-23T00:29:11.748Z,101196.04
2022-10-23T00:31:40.107Z,101194.73
2022-10-23T00:34:08.478Z,101188.85
2022-10-23T00:36:37.936Z,101184.08
2022-10-23T00:39:06.585Z,101179.55
2022-10-23T00:41:35.275Z,101174.67
2022-10-23T00:44:11.131Z,101172.20
2022-10-23T00:46:39.613Z,101177.31
2022-10-23T00:49:09.727Z,101171.17
2022-10-23T00:51:47.922Z,101167.98
2022-10-23T00:54:25.645Z,101163.64
2022-10-23T00:56:59.143Z,101168.23
2022-10-23T00:59:27.762Z,101164.14
2022-10-23T01:01:56.166Z,101153.45
2022-10-23T01:04:25.925Z,101143.73
2022-10-23T01:07:31.762Z,101142.02
2022-10-23T01:10:37.904Z,101128.20
2022-10-23T01:13:14.269Z,101132.92
2022-10-23T01:15:52.955Z,101144.84
2022-10-23T01:18:44.811Z,101138.27
2022-10-23T01:21:22.605Z,101145.38
2022-10-23T01:23:56.678Z,101145.83
2022-10-23T01:27:01.635Z,101141.88
2022-10-23T01:29:49.179Z,101141.22
2022-10-23T01:32:27.687Z,101138.48
2022-10-23T01:35:01.592Z,101133.66
2022-10-23T01:37:55.739Z,101137.13
2022-10-23T01:40:47.561Z,101130.14
2022-10-23T01:43:25.258Z,101134.98
2022-10-23T01:46:01.387Z,101132.52
2022-10-23T01:48:31.132Z,101133.20
2022-10-23T01:51:03.609Z,101126.29
2022-10-23T01:53:37.520Z,101124.11
2022-10-23T01:56:12.184Z,101121.73
2022-10-23T01:58:45.956Z,101120.33
2022-10-23T02:01:16.628Z,101113.36
2022-10-23T02:03:45.247Z,101108.86
2022-10-23T02:06:13.453Z,101108.23
2022-10-23T02:08:42.042Z,101100.70
2022-10-23T02:11:15.743Z,101098.55
2022-10-23T02:14:04.145Z,101097.56
2022-10-23T02:16:55.392Z,101094.48
2022-10-23T02:19:35.660Z,101087.54
2022-10-23T02:22:32.987Z,101083.66
2022-10-23T02:25:09.571Z,101079.19
2022-10-23T02:27:43.114Z,101078.53
2022-10-23T02:30:16.235Z,101076.31
2022-10-23T02:32:53.840Z,101069.61
2022-10-23T02:35:26.421Z,101066.10
2022-10-23T02:37:59.515Z,101061.88
2022-10-23T02:40:42.018Z,101056.41
2022-10-23T02:43:21.985Z,101054.63
2022-10-23T02:46:20.780Z,101049.54
2022-10-23T02:48:57.227Z,101047.69
2022-10-23T02:51:44.724Z,101044.32
2022-10-23T02:54:22.700Z,101041.77
2022-10-23T02:57:06.249Z,101042.66
2022-10-23T02:59:34.207Z,101040.05
2022-10-23T03:02:51.631Z,101043.38
2022-10-23T03:05:28.607Z,101038.28
2022-10-23T03:07:56.887Z,101041.70
2022-10-23T03:10:25.375Z,101035.71
2022-10-23T03:12:53.451Z,101037.02
2022-10-23T03:15:21.421Z,101033.30
2022-10-23T03:17:49.404Z,101030.83
2022-10-23T03:20:18.086Z,101032.50
2022-10-23T03:22:46.348Z,101033.63
2022-10-23T03:25:14.852Z,101036.84
2022-10-23T03:27:43.133Z,101041.43
2022-10-23T03:30:11.415Z,101042.60
2022-10-23T03:32:39.676Z,101043.80
2022-10-23T03:35:08.595Z,101041.44
2022-10-23T03:37:36.667Z,101041.03
2022-10-23T03:40:05.257Z,101037.15
2022-10-23T03:42:33.433Z,101037.13
2022-10-23T03:45:01.405Z,101035.52
2022-10-23T03:47:30.401Z,101033.20
2022-10-23T03:49:58.579Z,101040.63
2022-10-23T03:52:26.558Z,101033.73
2022-10-23T03:54:54.529Z,101034.80
2022-10-23T03:57:22.601Z,101035.65
2022-10-23T03:59:50.679Z,101036.39
2022-10-23T04:02:18.945Z,101031.15
2022-10-23T04:04:47.140Z,101027.88
2022-10-23T04:07:15.419Z,101024.34
2022-10-23T04:09:43.410Z,101018.98
2022-10-23T04:12:11.466Z,101013.23
2022-10-23T04:14:39.622Z,101010.00
2022-10-23T04:17:07.938Z,101012.27
2022-10-23T04:19:36.105Z,101018.38
2022-10-23T04:22:04.080Z,101024.25
2022-10-23T04:24:32.257Z,101034.95
2022-10-23T04:27:00.538Z,101043.40
2022-10-23T04:29:28.920Z,101040.66
2022-10-23T04:31:57.207Z,101047.27
2022-10-23T04:34:25.181Z,101047.22
2022-10-23T04:36:53.154Z,101047.07
2022-10-23T04:39:21.327Z,101045.89
2022-10-23T04:41:49.202Z,101052.11
2022-10-23T04:44:17.176Z,101056.27
2022-10-23T04:46:45.045Z,101054.88
2022-10-23T04:49:13.016Z,101053.92
2022-10-23T04:51:40.933Z,101051.66
2022-10-23T04:54:08.759Z,101046.73
2022-10-23T04:56:36.841Z,101045.18
2022-10-23T05:01:33.992Z,101055.30
2022-10-23T05:04:02.608Z,101053.52
2022-10-23T05:06:30.883Z,101062.29
2022-10-23T05:08:58.858Z,101071.44
2022-10-23T05:11:26.931Z,101077.81
2022-10-23T05:13:54.901Z,101083.44
2022-10-23T05:16:36.588Z,101080.95
2022-10-23T05:19:07.366Z,101077.48
2022-10-23T05:21:38.575Z,101071.38
2022-10-23T05:24:07.061Z,101073.05
2022-10-23T05:26:35.037Z,101080.62
2022-10-23T05:29:03.551Z,101081.98
2022-10-23T05:31:34.765Z,101080.49
2022-10-23T05:34:02.690Z,101082.59
2022-10-23T05:36:32.067Z,101077.85
2022-10-23T05:38:59.944Z,101076.63
2022-10-23T05:41:27.889Z,101076.27
2022-10-23T05:43:56.071Z,101081.91
2022-10-23T05:46:24.042Z,101085.90
2022-10-23T05:48:52.896Z,101086.70
2022-10-23T05:51:21.938Z,101088.70
2022-10-23T05:53:50.881Z,101091.80
2022-10-23T05:56:19.621Z,101089.79
2022-10-23T05:58:47.696Z,101088.09
2022-10-23T06:01:15.826Z,101088.97
2022-10-23T06:03:43.746Z,101088.32
2022-10-23T06:06:12.334Z,101090.92
2022-10-23T06:08:40.307Z,101098.83
2022-10-23T06:11:09.949Z,101101.27
2022-10-23T06:13:38.512Z,101102.98
2022-10-23T06:16:15.281Z,101100.45
2022-10-23T06:18:44.285Z,101098.31
2022-10-23T06:21:13.171Z,101099.04
2022-10-23T06:23:43.191Z,101098.67
2022-10-23T06:26:13.866Z,101096.02
2022-10-23T06:28:41.948Z,101095.52
2022-10-23T06:31:13.571Z,101101.05
2022-10-23T06:33:42.045Z,101108.70
2022-10-23T06:36:10.122Z,101111.37
2022-10-23T06:38:39.181Z,101114.75
2022-10-23T06:41:19.533Z,101115.98
2022-10-23T06:43:49.915Z,101118.08
2022-10-23T06:46:19.217Z,101119.54
2022-10-23T06:48:47.238Z,101122.83
2022-10-23T06:51:17.928Z,101128.32
2022-10-23T06:53:46.301Z,101131.63
2022-10-23T06:56:14.865Z,101134.52
2022-10-23T06:58:42.813Z,101128.45
2022-10-23T07:01:13.125Z,101133.36
2022-10-23T07:03:41.095Z,101146.13
2022-10-23T07:06:10.985Z,101142.64
2022-10-23T07:08:38.977Z,101150.06
2022-10-23T07:11:09.381Z,101165.52
2022-10-23T07:13:38.797Z,101167.48
2022-10-23T07:16:19.301Z,101170.10
2022-10-23T07:18:48.881Z,101175.03
2022-10-23T07:21:17.036Z,101186.85
2022-10-23T07:23:44.912Z,101188.45
2022-10-23T07:26:15.825Z,101187.60
2022-10-23T07:28:45.947Z,101185.48
2022-10-23T07:31:14.661Z,101184.42
2022-10-23T07:33:42.738Z,101188.56
2022-10-23T07:36:10.820Z,101192.35
2022-10-23T07:38:39.096Z,101197.09
2022-10-23T07:41:09.045Z,101199.80
2022-10-23T07:43:40.054Z,101196.86
2022-10-23T07:46:08.648Z,101202.97
2022-10-23T07:48:37.946Z,101211.69
2022-10-23T07:51:13.862Z,101210.40
2022-10-23T07:53:43.308Z,101206.55
2022-10-23T07:56:37.490Z,101208.13
2022-10-23T07:59:05.427Z,101206.15
2022-10-23T08:01:40.737Z,101203.41
2022-10-23T08:04:10.617Z,101205.33
2022-10-23T08:06:38.689Z,101210.21
2022-10-23T08:09:07.380Z,101207.36
2022-10-23T08:11:35.890Z,101203.33
2022-10-23T08:14:06.606Z,101205.04
2022-10-23T08:16:37.438Z,101201.48
2022-10-23T08:19:07.203Z,101199.05
2022-10-23T08:21:35.228Z,101200.11
2022-10-23T08:24:03.734Z,101194.88
2022-10-23T08:26:32.300Z,101190.67
2022-10-23T08:29:00.990Z,101195.27
2022-10-23T08:31:29.095Z,101204.19
2022-10-23T08:33:57.085Z,101202.13
2022-10-23T08:36:27.666Z,101205.69
2022-10-23T08:38:57.900Z,101211.63
2022-10-23T08:41:28.123Z,101211.14
2022-10-23T08:44:24.762Z,101214.65
2022-10-23T08:47:08.419Z,101216.08
2022-10-23T08:49:58.057Z,101221.69
2022-10-23T08:52:37.412Z,101231.47
2022-10-23T08:55:35.994Z,101236.73
2022-10-23T08:58:27.118Z,101239.95
2022-10-23T09:00:55.342Z,101240.52
2022-10-23T09:03:23.513Z,101244.98
2022-10-23T09:06:03.510Z,101241.73
2022-10-23T09:08:59.474Z,101244.02
2022-10-23T09:11:59.990Z,101240.75
2022-10-23T09:14:30.623Z,101240.98
2022-10-23T09:17:17.056Z,101245.68
2022-10-23T09:19:46.330Z,101243.42
2022-10-23T09:22:14.395Z,101243.61
2022-10-23T09:24:44.212Z,101245.99
2022-10-23T09:27:17.612Z,101245.07
2022-10-23T09:29:51.829Z,101240.88
2022-10-23T09:32:20.574Z,101244.49
2022-10-23T09:34:55.144Z,101243.80
2022-10-23T09:37:23.117Z,101244.52
2022-10-23T09:40:24.682Z,101247.88
2022-10-23T09:43:01.633Z,101248.61
2022-10-23T09:45:31.881Z,101248.16
2022-10-23T09:48:12.974Z,101250.73
2022-10-23T09:51:02.396Z,101254.84
2022-10-23T09:53:33.230Z,101252.68
2022-10-23T09:56:24.638Z,101251.31
2022-10-23T09:59:15.808Z,101244.98
2022-10-23T10:01:53.386Z,101248.66
2022-10-23T10:04:36.379Z,101253.02
2022-10-23T10:07:15.786Z,101253.60
2022-10-23T10:09:43.863Z,101254.05
2022-10-23T10:12:17.770Z,101257.30
2022-10-23T10:15:09.997Z,101259.15
2022-10-23T10:17:50.975Z,101258.55
2022-10-23T10:21:08.777Z,101260.43
2022-10-23T10:23:47.395Z,101260.17
2022-10-23T10:26:34.508Z,101258.41
2022-10-23T10:29:21.415Z,101253.75
2022-10-23T10:32:22.438Z,101254.21
2022-10-23T10:35:11.898Z,101254.03
2022-10-23T10:37:48.615Z,101258.05
2022-10-23T10:40:38.962Z,101260.98
2022-10-23T10:43:29.366Z,101263.26
2022-10-23T10:46:20.765Z,101261.16
2022-10-23T10:49:01.362Z,101258.84
2022-10-23T10:51:59.473Z,101258.59
2022-10-23T10:54:30.412Z,101253.69
2022-10-23T10:57:01.047Z,101255.66
2022-10-23T10:59:38.848Z,101255.20
2022-10-23T11:02:29.125Z,101248.84
2022-10-23T11:05:29.156Z,101246.13
2022-10-23T11:08:07.159Z,101238.85
2022-10-23T11:10:39.301Z,101235.57
2022-10-23T11:13:26.517Z,101234.68
2022-10-23T11:16:04.006Z,101234.73
2022-10-23T11:18:33.890Z,101229.66
2022-10-23T11:21:32.497Z,101235.40
2022-10-23T11:24:19.404Z,101240.58
2022-10-23T11:27:25.236Z,101241.15
2022-10-23T11:30:26.265Z,101240.89
2022-10-23T11:33:34.556Z,101232.88
2022-10-23T11:36:18.702Z,101229.80
2022-10-23T11:38:50.016Z,101219.15
2022-10-23T11:41:25.310Z,101218.03
2022-10-23T11:43:57.459Z,101212.68
2022-10-23T11:46:25.538Z,101205.81
2022-10-23T11:48:55.560Z,101203.80
2022-10-23T11:51:40.823Z,101203.17
2022-10-23T11:54:11.585Z,101204.48
2022-10-23T11:56:54.415Z,101203.64
2022-10-23T11:59:26.029Z,101198.39
2022-10-23T12:01:57.257Z,101195.98
2022-10-23T12:04:33.650Z,101187.36
2022-10-23T12:07:13.690Z,101177.55
2022-10-23T12:09:45.446Z,101180.94
2022-10-23T12:12:16.841Z,101175.04
2022-10-23T12:14:50.199Z,101172.55
2022-10-23T12:17:24.107Z,101166.09
2022-10-23T12:19:55.079Z,101163.84
2022-10-23T12:22:32.293Z,101160.58
2022-10-23T12:25:07.459Z,101166.10
2022-10-23T12:27:46.052Z,101169.59
2022-10-23T12:30:29.207Z,101168.79
2022-10-23T12:33:22.127Z,101168.96
2022-10-23T12:35:59.026Z,101171.64
2022-10-23T12:38:33.947Z,101167.36
2022-10-23T12:41:13.563Z,101170.64
2022-10-23T12:43:45.845Z,101168.38
2022-10-23T12:46:33.331Z,101169.02
2022-10-23T12:49:03.789Z,101162.53
2022-10-23T12:51:34.418Z,101158.51
2022-10-23T12:54:03.558Z,101151.51
2022-10-23T12:56:38.075Z,101149.42
2022-10-23T12:59:18.431Z,101149.94
2022-10-23T13:01:51.799Z,101146.48
2022-10-23T13:04:33.319Z,101142.22
2022-10-23T13:07:03.769Z,101141.14
2022-10-23T13:09:39.900Z,101140.77
2022-10-23T13:12:16.817Z,101133.36
2022-10-23T13:15:17.537Z,101133.11
2022-10-23T13:17:57.855Z,101134.03
2022-10-23T13:20:37.389Z,101131.39
2022-10-23T13:23:08.537Z,101135.26
2022-10-23T13:25:39.309Z,101128.67
2022-10-23T13:28:22.084Z,101130.77
2022-10-23T13:30:59.371Z,101132.28
2022-10-23T13:33:34.611Z,101138.19
2022-10-23T13:36:07.616Z,101143.13
2022-10-23T13:38:38.208Z,101132.30
2022-10-23T13:41:11.762Z,101132.37
2022-10-23T13:43:41.854Z,101141.26
2022-10-23T13:46:24.842Z,101140.70
2022-10-23T13:48:53.562Z,101138.64
2022-10-23T13:51:24.464Z,101135.04
2022-10-23T13:53:53.192Z,101125.82
2022-10-23T13:56:23.246Z,101126.20
2022-10-23T13:58:51.348Z,101124.67
2022-10-23T14:01:28.292Z,101125.08
2022-10-23T14:03:57.779Z,101121.41
2022-10-23T14:06:26.056Z,101123.09
2022-10-23T14:08:54.340Z,101124.34
2022-10-23T14:11:22.721Z,101125.59
2022-10-23T14:13:51.005Z,101127.91
2022-10-23T14:16:20.717Z,101128.58
2022-10-23T14:18:49.144Z,101130.54
2022-10-23T14:21:20.718Z,101126.11
2022-10-23T14:23:49.998Z,101129.23
2022-10-23T14:26:21.012Z,101135.52
2022-10-23T14:28:55.292Z,101140.95
2022-10-23T14:31:23.706Z,101133.30
2022-10-23T14:33:57.247Z,101129.62
2022-10-23T14:36:30.917Z,101128.71
2022-10-23T14:39:06.860Z,101130.13
2022-10-23T14:41:35.249Z,101131.49
2022-10-23T14:44:03.320Z,101127.09
2022-10-23T14:46:31.397Z,101123.33
2022-10-23T14:49:02.334Z,101124.98
2022-10-23T14:51:30.829Z,101123.25
2022-10-23T14:54:04.221Z,101118.63
2022-10-23T14:56:35.527Z,101124.16
2022-10-23T14:59:05.091Z,101122.69
2022-10-23T15:01:36.731Z,101120.13
2022-10-23T15:04:05.537Z,101113.36
2022-10-23T15:06:35.090Z,101108.55
2022-10-23T15:09:04.444Z,101110.98
2022-10-23T15:11:33.173Z,101105.21
2022-10-23T15:14:01.211Z,101105.75
2022-10-23T15:16:29.286Z,101108.02
2022-10-23T15:18:57.372Z,101106.64
2022-10-23T15:21:25.542Z,101107.02
2022-10-23T15:23:53.542Z,101110.83
2022-10-23T15:26:22.207Z,101110.77
2022-10-23T15:29:01.899Z,101106.08
2022-10-23T15:31:29.922Z,101111.59
2022-10-23T15:33:58.610Z,101113.16
2022-10-23T15:36:27.301Z,101112.70
2022-10-23T15:38:55.581Z,101117.16
2022-10-23T15:41:32.047Z,101117.34
2022-10-23T15:44:02.285Z,101119.06
2022-10-23T15:46:30.762Z,101121.45
2022-10-23T15:48:58.939Z,101118.21
2022-10-23T15:51:27.628Z,101118.48
2022-10-23T15:53:56.217Z,101116.68
2022-10-23T15:56:24.807Z,101117.75
2022-10-23T15:58:53.110Z,101112.63
2022-10-23T16:01:21.217Z,101110.80
2022-10-23T16:03:49.443Z,101110.47
2022-10-23T16:06:19.404Z,101110.19
2022-10-23T16:08:48.013Z,101107.51
2022-10-23T16:11:18.305Z,101110.65
2022-10-23T16:13:46.860Z,101109.25
2022-10-23T16:16:16.472Z,101113.36
2022-10-23T16:18:44.816Z,101112.10
2022-10-23T16:21:22.174Z,101111.41
2022-10-23T16:23:51.899Z,101109.55
2022-10-23T16:26:20.849Z,101103.52
2022-10-23T16:28:53.428Z,101106.88
2022-10-23T16:31:24.930Z,101112.43
2022-10-23T16:33:53.698Z,101114.30
2022-10-23T16:36:21.956Z,101117.35
2022-10-23T16:38:49.929Z,101120.45
2022-10-23T16:41:18.208Z,101119.67
2022-10-23T16:43:46.304Z,101114.74
2022-10-23T16:46:17.936Z,101121.93
2022-10-23T16:48:46.332Z,101125.67
2022-10-23T16:51:20.341Z,101124.36
2022-10-23T16:53:49.187Z,101124.30
2022-10-23T16:56:20.502Z,101126.13
2022-10-23T16:58:49.093Z,101125.79
2022-10-23T17:01:21.572Z,101126.44
2022-10-23T17:03:51.974Z,101126.05
2022-10-23T17:06:23.632Z,101124.27
2022-10-23T17:08:52.893Z,101121.58
2022-10-23T17:11:23.859Z,101119.48
2022-10-23T17:13:59.280Z,101115.45
2022-10-23T17:16:33.843Z,101113.63
2022-10-23T17:19:03.157Z,101108.96
2022-10-23T17:21:34.893Z,101108.30
2022-10-23T17:24:03.497Z,101108.58
2022-10-23T17:26:32.084Z,101112.78
2022-10-23T17:29:02.000Z,101112.40
2022-10-23T17:31:33.079Z,101115.61
2022-10-23T17:34:04.481Z,101119.45
2022-10-23T17:36:35.542Z,101120.05
2022-10-23T17:39:08.644Z,101122.30
2022-10-23T17:41:37.320Z,101123.25
2022-10-23T17:44:05.500Z,101122.68
2022-10-23T17:46:33.577Z,101124.51
2022-10-23T17:49:03.510Z,101128.65
2022-10-23T17:51:35.438Z,101135.40
2022-10-23T17:54:09.227Z,101137.02
2022-10-23T17:56:38.058Z,101141.42
2022-10-23T17:59:10.431Z,101139.23
2022-10-23T18:01:38.803Z,101140.34
2022-10-23T18:04:08.121Z,101145.71
2022-10-23T18:06:42.500Z,101144.58
2022-10-23T18:09:11.228Z,101148.44
2022-10-23T18:11:45.610Z,101149.95
2022-10-23T18:14:19.175Z,101150.02
2022-10-23T18:16:48.151Z,101149.56
2022-10-23T18:19:17.964Z,101153.92
2022-10-23T18:21:47.469Z,101157.63
2022-10-23T18:24:16.058Z,101157.61
2022-10-23T18:26:44.343Z,101161.09
2022-10-23T18:29:13.030Z,101164.95
2022-10-23T18:31:41.512Z,101171.86
2022-10-23T18:34:17.776Z,101178.22
2022-10-23T18:36:46.606Z,101180.51
2022-10-23T18:39:17.413Z,101184.52
2022-10-23T18:41:46.201Z,101187.22
2022-10-23T18:44:16.816Z,101191.26
2022-10-23T18:46:47.031Z,101197.27
2022-10-23T18:49:17.490Z,101199.02
2022-10-23T18:51:45.916Z,101200.19
2022-10-23T18:54:15.795Z,101198.11
2022-10-23T18:56:44.485Z,101201.70
2022-10-23T18:59:19.648Z,101201.25
2022-10-23T19:01:48.737Z,101202.16
2022-10-23T19:04:17.100Z,101203.48
2022-10-23T19:06:46.501Z,101206.39
2022-10-23T19:09:14.686Z,101203.58
2022-10-23T19:11:43.892Z,101205.88
2022-10-23T19:14:12.887Z,101204.59
2022-10-23T19:16:49.693Z,101204.27
2022-10-23T19:19:20.193Z,101202.60
2022-10-23T19:21:49.551Z,101202.44
2022-10-23T19:24:25.708Z,101198.89
2022-10-23T19:26:54.957Z,101202.95
2022-10-23T19:29:25.795Z,101204.52
2022-10-23T19:31:54.212Z,101199.84
2022-10-23T19:34:24.235Z,101200.50
2022-10-23T19:36:54.229Z,101199.78
2022-10-23T19:39:22.703Z,101200.17
2022-10-23T19:41:50.679Z,101198.82
2022-10-23T19:44:19.367Z,101197.02
2022-10-23T19:46:48.671Z,101195.35
2022-10-23T19:49:17.914Z,101194.30
2022-10-23T19:51:50.970Z,101193.47
2022-10-23T19:54:21.461Z,101195.26
2022-10-23T19:56:49.786Z,101193.30
2022-10-23T19:59:18.674Z,101195.13
2022-10-23T20:01:48.998Z,101198.98
2022-10-23T20:04:19.263Z,101195.27
2022-10-23T20:06:47.515Z,101196.18
2022-10-23T20:09:15.994Z,101196.46
2022-10-23T20:11:44.170Z,101192.27
2022-10-23T20:14:13.062Z,101196.15
2022-10-23T20:16:43.084Z,101192.00
2022-10-23T20:19:14.081Z,101190.71
2022-10-23T20:21:44.810Z,101195.15
2022-10-23T20:24:14.989Z,101196.60
2022-10-23T20:26:45.621Z,101196.70
2022-10-23T20:29:14.822Z,101195.66
2022-10-23T20:31:43.528Z,101197.02
2022-10-23T20:34:12.303Z,101202.72
2022-10-23T20:36:46.946Z,101204.73
2022-10-23T20:39:21.535Z,101202.02
2022-10-23T20:41:49.632Z,101199.45
2022-10-23T20:44:20.203Z,101203.30
2022-10-23T20:46:49.571Z,101201.34
2022-10-23T20:49:17.952Z,101204.00
2022-10-23T20:51:46.071Z,101206.23
2022-10-23T20:54:14.104Z,101210.11
2022-10-23T20:56:42.385Z,101212.10
2022-10-23T20:59:13.767Z,101215.91
2022-10-23T21:01:44.705Z,101217.13
2022-10-23T21:04:14.037Z,101217.18
2022-10-23T21:06:57.642Z,101216.65
2022-10-23T21:09:30.991Z,101217.64
2022-10-23T21:11:58.856Z,101218.40
2022-10-23T21:14:26.855Z,101215.73
2022-10-23T21:16:54.837Z,101218.38
2022-10-23T21:19:22.811Z,101223.25
2022-10-23T21:21:50.776Z,101229.48
2022-10-23T21:24:18.838Z,101225.35
2022-10-23T21:26:46.835Z,101226.58
2022-10-23T21:29:19.371Z,101223.52
2022-10-23T21:31:55.905Z,101227.00
2022-10-23T21:34:25.620Z,101223.36
2022-10-23T21:39:43.887Z,101223.53
2022-10-23T21:42:13.763Z,101219.67
2022-10-23T21:44:41.733Z,101216.02
2022-10-23T21:47:09.806Z,101215.27
2022-10-23T21:49:38.302Z,101216.27
2022-10-23T21:52:06.425Z,101211.02
2022-10-23T21:54:34.417Z,101218.02
2022-10-23T21:57:02.422Z,101218.33
2022-10-23T21:59:33.160Z,101214.15
2022-10-23T22:02:04.375Z,101209.50
2022-10-23T22:04:32.785Z,101212.35
2022-10-23T22:07:01.481Z,101210.79
2022-10-23T22:09:29.768Z,101210.33
2022-10-23T22:11:57.940Z,101211.00
2022-10-23T22:14:27.239Z,101210.77
2022-10-23T22:16:55.113Z,101211.09
2022-10-23T22:19:23.394Z,101212.27
2022-10-23T22:21:51.735Z,101210.19
2022-10-23T22:24:20.321Z,101214.80
2022-10-23T22:26:53.962Z,101213.70
2022-10-23T22:29:26.425Z,101211.15
2022-10-23T22:31:54.418Z,101210.33
2022-10-23T22:34:51.441Z,101209.19
2022-10-23T22:37:16.972Z,101210.80
2022-10-23T22:39:44.837Z,101212.76
2022-10-23T22:42:12.913Z,101213.57
2022-10-23T22:44:40.990Z,101216.96
2022-10-23T22:47:09.027Z,101221.89
2022-10-23T22:49:37.347Z,101222.10
2022-10-23T22:52:05.320Z,101221.31
2022-10-23T22:54:33.908Z,101220.45
2022-10-23T22:57:01.886Z,101224.08
2022-10-23T22:59:30.265Z,101229.11
2022-10-23T23:01:58.692Z,101226.66
2022-10-23T23:04:37.289Z,101227.70
2022-10-23T23:07:07.768Z,101227.60
2022-10-23T23:09:40.376Z,101227.20
2022-10-23T23:12:11.601Z,101230.88
2022-10-23T23:14:40.108Z,101229.98
2022-10-23T23:17:09.257Z,101233.23
2022-10-23T23:19:37.489Z,101233.97
2022-10-23T23:22:05.667Z,101233.48
2022-10-23T23:24:33.951Z,101234.58
2022-10-23T23:27:02.227Z,101234.52
2022-10-23T23:29:33.199Z,101231.03
2022-10-23T23:32:01.148Z,101229.30
2022-10-23T23:34:29.527Z,101228.66
2022-10-23T23:36:58.422Z,101232.52
2022-10-23T23:39:26.540Z,101227.36
2022-10-23T23:41:55.086Z,101229.46
2022-10-23T23:44:23.060Z,101230.88
2022-10-23T23:46:51.037Z,101231.81
2022-10-23T23:49:19.108Z,101231.35
2022-10-23T23:51:47.082Z,101230.02
2022-10-23T23:54:15.290Z,101230.39
2022-10-23T23:56:43.545Z,101232.47
2022-10-23T23:59:11.514Z,101233.04
